KSVH/SVH METAR and TAF weather

Enter ICAO airport designator
Station Type Date Time Source
KSVH METAR 2024/04/18 07:55 UTC NOAA

KSVH 180755Z AUTO 26004KT 10SM CLR 14/10 A3003 RMK AO2 T01350095


Station Type Date Time Source
KSVH Decoded METAR 2024/04/18 07:55 UTC NOAA

Statesville, Statesville Municipal Airport, NC, United States (KSVH) 35-45-55N 080-57-24W
Apr 18, 2024 - 03:55 AM EDT / 2024.04.18 0755 UTC
Wind: from the W (260 degrees) at 5 MPH (4 KT):0
Visibility: 10 mile(s):0
Sky conditions: clear
Temperature: 56.3 F (13.5 C)
Dew Point: 49.1 F (9.5 C)
Relative Humidity: 76%
Pressure (altimeter): 30.03 in. Hg (1016 hPa)
ob: KSVH 180755Z AUTO 26004KT 10SM CLR 14/10 A3003 RMK AO2 T01350095
cycle: 8

Station Type Date Time Source
KSVH TAF UTC NOAA

Error!

Example: see airport list